Minturn, Arkansas
Current Conditions -  °F | °C
As of 5:55 AM on Wednesday 28 Jan 2015 (Local Time) from KARG Reporting Station
Clear Clear  
Wind Chill: 26°   Ceiling: Unl
Heat Index: 32°   Visibility: 1.7mi
Dew Point: 27°   Wind: 6mph
Humidity: 80%   Direction: 90°E
Pressure: 30.26"   Gusts: NA
Location:  35.97°N, 91.03°W
Report Text: KARG 281155Z AUTO 09005KT 1 3/4SM CLR 00/M03 A3026 RMK AO1 10030 20000 52007
Loading
Personal Weather Stations






























Interactive Weather Map New forecast layout! Learn more

10-Day Weather Forecast

Advertisements
Track Severe Weather on mobile